Time;durP1;ratioP1;P1;durP2;ratioP2;P2;SDS_P1;SDS_P2;PMS_P1;PMS_P2;Temp;Humidity;BMP_temperature;BMP_pressure;BME280_temperature;BME280_humidity;BME280_pressure;Samples;Min_cycle;Max_cycle;Signal;HPM_P1;HPM_P2
2022/08/23 00:04:55;;;;;;;5.65;4.13;;;;;;;18.97;91.44;101602.84;10570734;28;20040;-74
2022/08/23 00:09:57;;;;;;;4.78;3.13;;;;;;;18.95;90.97;101612.66;10568419;28;20043;-74
2022/08/23 00:14:59;;;;;;;5.07;3.70;;;;;;;19.08;90.73;101610.94;10571399;28;20043;-74
2022/08/23 00:20:05;;;;;;;4.05;2.88;;;;;;;18.97;90.59;101613.97;10569469;28;20036;-74
2022/08/23 00:25:09;;;;;;;5.53;3.35;;;;;;;18.85;91.01;101622.03;10565352;28;20040;-74
2022/08/23 00:30:13;;;;;;;4.18;2.92;;;;;;;18.88;90.51;101628.94;10567201;28;20044;-74
2022/08/23 00:35:16;;;;;;;3.65;2.63;;;;;;;18.97;90.27;101630.66;10550837;28;20075;-74
2022/08/23 00:40:18;;;;;;;5.43;3.03;;;;;;;19.01;89.90;101638.38;10568359;28;20051;-74
2022/08/23 00:51:22;;;;;;;6.30;4.03;;;;;;;18.92;89.60;101653.03;10547565;28;20674;-74
2022/08/23 00:56:26;;;;;;;4.55;3.22;;;;;;;18.86;90.16;101657.06;10564151;28;20043;-74
2022/08/23 01:01:29;;;;;;;4.22;3.22;;;;;;;18.85;90.64;101658.19;10566246;28;20161;-74
2022/08/23 01:06:37;;;;;;;5.72;3.80;;;;;;;18.79;90.48;101659.44;10564540;28;20036;-75
2022/08/23 01:12:13;;;;;;;4.85;3.33;;;;;;;18.73;90.87;101669.00;10544212;28;20051;-74
2022/08/23 01:17:56;;;;;;;3.58;2.45;;;;;;;18.81;91.34;101665.50;10559423;28;20060;-74
2022/08/23 01:23:27;;;;;;;5.22;2.78;;;;;;;19.06;89.84;101666.06;10522961;28;20051;-74
2022/08/23 01:28:30;;;;;;;3.85;2.25;;;;;;;18.88;89.72;101665.91;10564670;28;20048;-74
2022/08/23 01:33:34;;;;;;;2.25;1.83;;;;;;;18.87;89.49;101666.22;10548720;28;20036;-74
2022/08/23 01:38:36;;;;;;;1.85;1.70;;;;;;;18.88;87.98;101670.66;10528358;28;20035;-74
2022/08/23 01:43:39;;;;;;;5.20;1.80;;;;;;;18.89;87.67;101667.53;10566643;28;20055;-74
2022/08/23 01:48:41;;;;;;;2.40;1.60;;;;;;;18.85;86.12;101674.06;10563294;28;20490;-74
2022/08/23 01:53:45;;;;;;;2.78;1.50;;;;;;;18.84;85.48;101677.97;10565131;28;20036;-74
2022/08/23 01:58:49;;;;;;;2.92;1.20;;;;;;;18.75;84.07;101669.56;10565068;28;20040;-74
2022/08/23 02:03:52;;;;;;;2.45;1.95;;;;;;;18.65;84.24;101667.81;10581315;28;20032;-75
2022/08/23 02:09:00;;;;;;;2.70;2.00;;;;;;;18.61;84.27;101677.06;10564255;28;20052;-74
2022/08/23 02:14:06;;;;;;;2.70;2.10;;;;;;;18.51;85.27;101693.94;10565024;28;20043;-74
2022/08/23 02:19:19;;;;;;;2.92;2.20;;;;;;;18.47;85.66;101701.25;10557486;28;20051;-75
2022/08/23 02:24:22;;;;;;;3.92;2.20;;;;;;;18.44;86.24;101711.03;10563037;28;20051;-74
2022/08/23 02:29:28;;;;;;;3.15;2.10;;;;;;;18.42;86.66;101721.63;10563399;28;20047;-75
2022/08/23 02:34:31;;;;;;;6.90;2.60;;;;;;;18.34;87.12;101719.53;10564377;28;20036;-75
2022/08/23 02:39:33;;;;;;;7.32;2.30;;;;;;;18.29;87.61;101717.69;10548241;28;20032;-74
2022/08/23 02:44:36;;;;;;;5.43;2.28;;;;;;;18.31;88.24;101715.44;10544013;28;20047;-73
2022/08/23 02:49:39;;;;;;;4.80;2.25;;;;;;;18.47;88.31;101715.97;10541373;28;20534;-74
2022/08/23 02:54:41;;;;;;;3.47;2.17;;;;;;;18.48;88.73;101716.78;10566370;28;20032;-76
2022/08/23 02:59:43;;;;;;;3.53;1.70;;;;;;;18.43;88.92;101723.28;10571484;28;20031;-75
2022/08/23 03:04:45;;;;;;;4.18;2.05;;;;;;;18.45;89.00;101723.78;10554468;28;20036;-75
2022/08/23 03:09:48;;;;;;;4.47;2.47;;;;;;;18.45;88.86;101721.00;10567048;28;20035;-75
2022/08/23 03:14:51;;;;;;;5.60;2.20;;;;;;;18.30;89.38;101733.25;10544521;28;20498;-77
2022/08/23 03:19:53;;;;;;;5.63;2.03;;;;;;;18.30;89.06;101733.25;10568642;28;20032;-75
2022/08/23 03:24:56;;;;;;;5.22;2.03;;;;;;;18.39;89.30;101736.94;10551988;28;20040;-74
2022/08/23 03:30:06;;;;;;;4.07;2.30;;;;;;;18.51;89.21;101732.84;10567069;28;20494;-74
2022/08/23 03:35:09;;;;;;;3.08;2.20;;;;;;;18.56;89.31;101735.50;10537401;28;20047;-74
2022/08/23 03:40:13;;;;;;;3.38;1.77;;;;;;;18.54;88.99;101732.22;10570764;28;20059;-75
2022/08/23 03:45:16;;;;;;;7.60;2.55;;;;;;;18.57;88.87;101748.28;10571091;28;20044;-75
2022/08/23 03:50:22;;;;;;;2.75;2.20;;;;;;;18.56;89.06;101749.41;10570244;28;20040;-75
2022/08/23 03:55:25;;;;;;;3.35;2.10;;;;;;;18.54;89.35;101730.25;10551541;28;20390;-75
2022/08/23 04:00:27;;;;;;;2.50;2.30;;;;;;;18.59;89.39;101735.75;10566942;28;20054;-75
2022/08/23 04:05:30;;;;;;;3.80;2.50;;;;;;;18.64;88.80;101745.97;10567421;28;20425;-74
2022/08/23 04:10:37;;;;;;;3.00;1.83;;;;;;;18.59;88.96;101746.88;10553544;28;20430;-74
2022/08/23 04:15:41;;;;;;;3.83;2.60;;;;;;;18.54;89.55;101754.44;10563280;28;20052;-75
2022/08/23 04:20:44;;;;;;;4.60;2.70;;;;;;;18.45;89.72;101759.09;10568354;28;20051;-76
2022/08/23 04:25:46;;;;;;;5.55;2.70;;;;;;;18.50;89.39;101770.09;10568899;28;20032;-75
2022/08/23 04:30:50;;;;;;;4.05;2.30;;;;;;;18.52;90.33;101765.88;10551428;28;20131;-75
2022/08/23 04:35:52;;;;;;;3.33;2.60;;;;;;;18.55;90.91;101768.03;10528751;28;20066;-76
2022/08/23 04:46:20;;;;;;;5.45;3.42;;;;;;;18.55;90.50;101778.34;10553075;28;20055;-74
2022/08/23 04:51:22;;;;;;;4.45;3.40;;;;;;;18.61;90.79;101779.91;10568455;28;20046;-74
2022/08/23 04:56:25;;;;;;;5.25;3.92;;;;;;;18.69;90.99;101782.00;10568247;28;20036;-74
2022/08/23 05:01:28;;;;;;;14.07;3.55;;;;;;;18.72;91.33;101780.53;10567583;28;20048;-75
2022/08/23 05:06:31;;;;;;;5.15;3.75;;;;;;;18.85;91.03;101772.22;10532765;28;20036;-74
2022/08/23 05:11:34;;;;;;;5.07;3.30;;;;;;;18.97;90.82;101775.31;10565053;28;20044;-74
2022/08/23 05:16:36;;;;;;;7.00;4.10;;;;;;;19.00;90.66;101781.38;10566659;28;20040;-74
2022/08/23 05:21:44;;;;;;;8.43;4.45;;;;;;;19.06;90.59;101782.91;10566589;28;20039;-75
2022/08/23 05:26:46;;;;;;;8.05;4.63;;;;;;;19.27;90.74;101784.16;10534286;28;20024;-75
2022/08/23 05:31:49;;;;;;;9.30;4.70;;;;;;;19.42;90.35;101782.94;10566107;28;20528;-75
2022/08/23 05:36:52;;;;;;;10.25;4.88;;;;;;;19.41;90.18;101784.91;10549620;28;20043;-75
2022/08/23 05:41:55;;;;;;;10.80;5.18;;;;;;;19.50;89.64;101791.41;10552201;28;20049;-75
2022/08/23 05:46:58;;;;;;;10.95;5.20;;;;;;;19.49;89.81;101786.97;10535115;28;20048;-75
2022/08/23 05:52:11;;;;;;;7.20;4.63;;;;;;;19.54;90.16;101791.63;10528202;28;20053;-75
2022/08/23 05:57:14;;;;;;;9.55;4.85;;;;;;;19.64;89.43;101805.31;10532843;28;20063;-75
2022/08/23 06:02:17;;;;;;;8.75;5.13;;;;;;;19.80;88.97;101811.34;10569520;28;20056;-75
2022/08/23 06:07:19;;;;;;;5.55;3.90;;;;;;;19.90;89.01;101813.06;10567589;28;20044;-75
2022/08/23 06:12:22;;;;;;;9.40;4.35;;;;;;;20.03;88.73;101806.59;10567693;28;20036;-75
2022/08/23 06:17:25;;;;;;;10.07;4.72;;;;;;;20.03;87.11;101806.59;10567732;28;20044;-73
2022/08/23 06:22:28;;;;;;;7.15;4.53;;;;;;;20.08;87.65;101812.88;10550636;28;20421;-73
2022/08/23 06:27:31;;;;;;;8.63;4.65;;;;;;;20.20;87.00;101815.09;10550600;28;20032;-73
2022/08/23 06:32:33;;;;;;;7.95;5.75;;;;;;;20.35;86.69;101825.84;10574954;28;20413;-72
2022/08/23 06:37:56;;;;;;;9.70;5.28;;;;;;;20.53;86.34;101818.44;10555450;28;20051;-73
2022/08/23 06:43:19;;;;;;;10.10;5.63;;;;;;;20.63;85.70;101818.16;10576579;28;20070;-72
2022/08/23 06:48:52;;;;;;;10.85;4.55;;;;;;;20.87;84.16;101828.13;10572616;28;20051;-73
2022/08/23 06:53:58;;;;;;;9.05;4.78;;;;;;;21.15;84.41;101832.31;10540931;28;20489;-73
2022/08/23 06:59:20;;;;;;;13.18;5.72;;;;;;;21.32;82.07;101815.63;10573244;28;20040;-72
2022/08/23 07:04:52;;;;;;;8.57;5.70;;;;;;;21.68;81.73;101825.72;10576282;28;20031;-72
2022/08/23 07:10:10;;;;;;;10.82;5.28;;;;;;;21.91;81.60;101837.56;10582943;28;20433;-72
2022/08/23 07:15:13;;;;;;;8.35;4.68;;;;;;;22.16;80.82;101839.53;10600348;27;20405;-72
2022/08/23 07:20:18;;;;;;;9.95;6.35;;;;;;;22.28;80.11;101847.28;10576727;28;20040;-72
2022/08/23 07:25:21;;;;;;;10.05;6.72;;;;;;;22.43;79.20;101848.72;10595819;28;20165;-72
2022/08/23 07:30:28;;;;;;;11.18;5.22;;;;;;;22.52;78.68;101843.94;10590874;28;20044;-74
2022/08/23 07:35:30;;;;;;;11.85;5.90;;;;;;;22.66;77.35;101846.53;10585973;28;20039;-73
2022/08/23 07:40:34;;;;;;;9.57;5.10;;;;;;;23.03;77.04;101845.75;10607733;28;20051;-73
2022/08/23 07:45:38;;;;;;;13.15;4.65;;;;;;;23.56;75.66;101835.88;10572885;28;20047;-73
2022/08/23 07:50:40;;;;;;;13.10;6.38;;;;;;;24.04;73.92;101842.97;10574084;28;20079;-72
2022/08/23 07:55:43;;;;;;;9.00;5.50;;;;;;;24.21;71.71;101837.19;10568178;28;20417;-73
2022/08/23 08:01:14;;;;;;;11.00;5.85;;;;;;;24.77;71.22;101829.19;10573269;28;20526;-73
2022/08/23 08:06:26;;;;;;;6.72;3.30;;;;;;;25.24;67.63;101826.78;10534402;28;20044;-73
2022/08/23 08:11:30;;;;;;;;;;;;;;;25.85;66.60;101817.41;10550657;27;20052;-73
2022/08/23 08:16:47;;;;;;;9.57;5.10;;;;;;;26.22;64.32;101822.91;10565544;28;19927;-72
2022/08/23 08:21:55;;;;;;;10.43;4.80;;;;;;;26.42;64.34;101819.91;10599737;27;20051;-72
2022/08/23 08:27:05;;;;;;;12.15;4.82;;;;;;;26.51;62.31;101821.72;10575493;28;20050;-74
2022/08/23 08:32:08;;;;;;;7.13;4.50;;;;;;;26.65;62.94;101808.84;10590573;28;20079;-72
2022/08/23 08:37:11;;;;;;;5.15;3.45;;;;;;;26.87;61.44;101809.38;10581488;28;20043;-72
2022/08/23 08:42:22;;;;;;;7.10;4.95;;;;;;;26.80;60.95;101806.38;10598247;28;20043;-72
2022/08/23 08:47:38;;;;;;;5.95;3.75;;;;;;;26.99;60.65;101798.84;10611538;28;20047;-72
2022/08/23 08:52:50;;;;;;;6.37;4.30;;;;;;;26.89;60.10;101807.00;10558146;28;20045;-72
2022/08/23 08:58:17;;;;;;;5.57;3.60;;;;;;;27.31;60.52;101802.44;10527732;28;20059;-72
2022/08/23 09:03:21;;;;;;;10.13;3.90;;;;;;;27.49;57.58;101802.03;10528135;28;20048;-72
2022/08/23 09:08:28;;;;;;;14.25;4.47;;;;;;;27.68;58.09;101810.56;10552290;28;20036;-72
2022/08/23 09:13:59;;;;;;;7.97;4.85;;;;;;;27.84;55.72;101805.66;10574505;28;20037;-72
2022/08/23 09:19:05;;;;;;;9.13;3.75;;;;;;;27.62;54.65;101806.38;10535929;28;20059;-72
2022/08/23 09:24:08;;;;;;;7.53;2.78;;;;;;;27.23;55.81;101808.28;10544080;28;20044;-72
2022/08/23 09:29:31;;;;;;;7.15;3.83;;;;;;;26.98;56.48;101813.28;10527087;28;20045;-72
2022/08/23 09:34:35;;;;;;;6.28;2.90;;;;;;;26.61;56.26;101793.84;10513400;28;20039;-72
2022/08/23 09:39:48;;;;;;;7.00;3.40;;;;;;;26.36;56.85;101792.38;10526091;28;20506;-72
2022/08/23 09:44:55;;;;;;;7.15;3.58;;;;;;;26.12;58.02;101798.91;10543317;28;20403;-73
2022/08/23 09:50:15;;;;;;;5.18;2.88;;;;;;;25.92;58.17;101794.31;10526694;28;20056;-73
2022/08/23 09:55:47;;;;;;;4.97;2.90;;;;;;;25.76;58.05;101794.25;10526337;28;20040;-73
2022/08/23 10:01:10;;;;;;;7.43;3.03;;;;;;;25.66;57.61;101800.34;10526411;28;20044;-73
2022/08/23 10:06:28;;;;;;;8.98;3.92;;;;;;;25.47;58.02;101786.94;10559182;28;20403;-73
2022/08/23 10:11:43;;;;;;;8.52;3.58;;;;;;;25.37;57.61;101796.69;10572170;28;20051;-71
2022/08/23 10:17:11;;;;;;;5.50;2.65;;;;;;;25.30;56.99;101788.00;10551289;28;20048;-71
2022/08/23 10:22:43;;;;;;;5.25;2.58;;;;;;;25.34;58.17;101780.53;10534511;28;20050;-73
2022/08/23 10:33:45;;;;;;;3.38;2.35;;;;;;;25.43;57.56;101778.41;10536426;28;20048;-72
2022/08/23 10:39:03;;;;;;;6.63;2.80;;;;;;;25.43;56.18;101772.78;10550351;28;20044;-73
2022/08/23 10:44:27;;;;;;;6.00;2.90;;;;;;;25.41;56.40;101775.13;10532643;28;20060;-72
2022/08/23 10:49:34;;;;;;;4.00;2.38;;;;;;;25.43;55.68;101769.16;10516462;28;20075;-72
2022/08/23 10:54:58;;;;;;;6.55;2.70;;;;;;;25.44;56.92;101770.78;10534810;28;20048;-74
2022/08/23 11:00:06;;;;;;;4.25;2.83;;;;;;;25.44;55.92;101765.97;10532975;28;20056;-72
2022/08/23 11:05:25;;;;;;;4.32;2.97;;;;;;;25.45;55.76;101762.00;10537398;28;20442;-73
2022/08/23 11:10:38;;;;;;;1.92;1.52;;;;;;;25.50;57.72;101767.34;10532204;28;20037;-73
2022/08/23 11:15:45;;;;;;;5.35;3.20;;;;;;;25.44;58.31;101762.34;10531390;28;20525;-73
2022/08/23 11:20:50;;;;;;;5.45;3.58;;;;;;;25.37;60.38;101760.16;10548076;28;20049;-73
2022/08/23 11:25:58;;;;;;;3.92;2.83;;;;;;;25.28;60.18;101765.06;10537413;28;20044;-73
2022/08/23 11:31:10;;;;;;;9.65;4.05;;;;;;;25.24;60.35;101764.16;10542513;28;20513;-73
2022/08/23 11:36:22;;;;;;;9.93;2.95;;;;;;;25.22;59.44;101766.50;10552672;28;20122;-73
2022/08/23 11:41:27;;;;;;;11.63;3.50;;;;;;;25.19;60.35;101761.59;10530973;28;20419;-73
2022/08/23 11:46:49;;;;;;;10.75;4.10;;;;;;;25.18;60.47;101759.97;10517200;28;20064;-72
2022/08/23 11:52:05;;;;;;;4.50;3.38;;;;;;;25.14;61.19;101759.00;10564691;28;20041;-72
2022/08/23 11:57:45;;;;;;;9.35;3.80;;;;;;;25.12;61.65;101764.16;10536648;28;20043;-72
2022/08/23 12:03:01;;;;;;;5.72;2.83;;;;;;;25.06;61.93;101760.78;10537189;28;20402;-72
2022/08/23 12:08:03;;;;;;;6.50;2.90;;;;;;;25.03;61.38;101757.88;10531404;28;20030;-72
2022/08/23 12:13:18;;;;;;;4.90;3.70;;;;;;;25.05;62.01;101750.72;10530044;28;20047;-72
2022/08/23 12:18:20;;;;;;;8.05;3.47;;;;;;;25.04;61.81;101760.31;10531095;28;20052;-73
2022/08/23 12:23:22;;;;;;;7.35;3.00;;;;;;;24.98;61.96;101750.44;10529648;28;20044;-72
2022/08/23 12:28:45;;;;;;;7.03;3.10;;;;;;;24.92;62.59;101741.44;10528503;28;20056;-73
2022/08/23 12:33:56;;;;;;;8.80;3.38;;;;;;;24.92;61.86;101746.25;10517466;28;20055;-72
2022/08/23 12:39:24;;;;;;;5.35;2.35;;;;;;;24.90;62.96;101752.22;10528860;28;20053;-72
2022/08/23 12:44:28;;;;;;;8.15;2.80;;;;;;;24.88;62.46;101731.28;10543071;28;20135;-72
2022/08/23 12:49:33;;;;;;;6.22;3.33;;;;;;;24.86;62.55;101742.88;10582324;28;20102;-72
2022/08/23 12:54:37;;;;;;;9.15;2.67;;;;;;;24.86;62.28;101742.88;10569830;28;20405;-72
2022/08/23 13:00:04;;;;;;;6.07;3.10;;;;;;;24.86;62.02;101742.88;10584251;28;20039;-72
2022/08/23 13:05:14;;;;;;;5.53;3.20;;;;;;;24.86;63.11;101737.25;10562520;28;20048;-72
2022/08/23 13:10:16;;;;;;;4.28;2.92;;;;;;;24.84;62.26;101733.16;10553343;28;20044;-72
2022/08/23 13:15:48;;;;;;;5.18;3.40;;;;;;;24.81;62.87;101745.06;10569630;28;20083;-72
2022/08/23 13:21:18;;;;;;;6.80;3.53;;;;;;;24.73;62.43;101730.00;10536985;28;20052;-72
2022/08/23 13:26:40;;;;;;;4.65;3.17;;;;;;;24.68;62.10;101741.47;10528947;28;20644;-72
2022/08/23 13:31:51;;;;;;;5.53;2.90;;;;;;;24.62;62.15;101732.44;10528380;28;20047;-72
2022/08/23 13:36:57;;;;;;;5.03;3.08;;;;;;;24.60;61.52;101731.16;10527989;28;20498;-72
2022/08/23 13:41:59;;;;;;;8.85;3.45;;;;;;;24.60;62.98;101733.97;10565558;28;20067;-73
2022/08/23 13:47:04;;;;;;;8.40;3.67;;;;;;;24.48;63.61;101742.38;10567037;28;20044;-72
2022/08/23 13:52:11;;;;;;;3.15;2.17;;;;;;;24.33;63.89;101741.91;10555800;28;20057;-72
2022/08/23 13:57:15;;;;;;;4.18;3.30;;;;;;;24.25;64.19;101741.94;10544929;28;20484;-72
2022/08/23 14:02:19;;;;;;;6.18;3.25;;;;;;;24.21;64.70;101727.00;10565976;28;20498;-73
2022/08/23 14:07:21;;;;;;;6.80;3.22;;;;;;;24.10;63.64;101740.63;10562044;28;20052;-73
2022/08/23 14:12:26;;;;;;;6.00;2.97;;;;;;;23.91;65.04;101731.91;10565929;28;20060;-73
2022/08/23 14:17:31;;;;;;;7.45;4.10;;;;;;;23.80;64.92;101747.56;10558614;28;20036;-72
2022/08/23 14:22:34;;;;;;;5.88;2.92;;;;;;;23.72;65.81;101738.84;10565953;28;20032;-72
2022/08/23 14:27:41;;;;;;;6.40;3.72;;;;;;;23.57;66.50;101742.28;10555610;28;20039;-72
2022/08/23 14:32:44;;;;;;;5.75;3.38;;;;;;;23.43;66.99;101727.72;10561586;28;20048;-75
2022/08/23 14:37:46;;;;;;;6.18;3.75;;;;;;;23.29;68.58;101735.59;10581502;28;20051;-75
2022/08/23 14:42:49;;;;;;;5.90;3.22;;;;;;;23.16;69.03;101727.09;10561544;28;20048;-73
2022/08/23 14:47:51;;;;;;;8.75;3.97;;;;;;;23.09;70.54;101724.03;10578360;28;20052;-73
2022/08/23 14:52:53;;;;;;;6.38;3.60;;;;;;;23.03;70.50;101732.94;10574562;28;20040;-73
2022/08/23 14:57:55;;;;;;;12.90;4.30;;;;;;;22.90;70.86;101734.00;10571522;28;20032;-73
2022/08/23 15:02:58;;;;;;;6.60;4.55;;;;;;;22.85;71.52;101743.44;10569304;28;20071;-73
2022/08/23 15:08:00;;;;;;;7.78;4.57;;;;;;;22.78;72.50;101734.72;10569882;28;20035;-73
2022/08/23 15:13:03;;;;;;;3.67;2.40;;;;;;;22.71;71.48;101740.00;10573724;28;20418;-73
2022/08/23 15:18:08;;;;;;;2.80;1.95;;;;;;;22.66;70.36;101734.59;10572660;28;20036;-73
2022/08/23 15:23:10;;;;;;;2.65;2.33;;;;;;;22.58;69.70;101711.13;10575324;28;20051;-73
2022/08/23 15:28:14;;;;;;;6.70;3.05;;;;;;;22.53;69.79;101720.50;10574508;28;20051;-73
2022/08/23 15:33:17;;;;;;;4.88;2.72;;;;;;;22.46;70.64;101725.00;10573934;28;20051;-73
2022/08/23 15:38:21;;;;;;;11.75;3.63;;;;;;;22.40;71.14;101737.53;10572656;28;20047;-73
2022/08/23 15:43:23;;;;;;;5.45;2.75;;;;;;;22.31;71.19;101717.16;10573203;28;20055;-73
2022/08/23 15:49:07;;;;;;;4.47;2.90;;;;;;;22.22;72.05;101709.63;10567211;28;20044;-71
2022/08/23 15:54:10;;;;;;;4.47;2.42;;;;;;;22.17;71.68;101714.56;10551390;28;20040;-73
2022/08/23 15:59:13;;;;;;;7.38;2.78;;;;;;;22.08;71.32;101714.59;10554564;28;20094;-73
2022/08/23 16:04:16;;;;;;;6.45;3.60;;;;;;;22.00;71.27;101708.97;10573621;28;20052;-73
2022/08/23 16:09:20;;;;;;;3.72;2.90;;;;;;;21.92;72.12;101714.28;10550736;28;20040;-73
2022/08/23 16:14:29;;;;;;;6.65;3.42;;;;;;;21.89;72.15;101708.53;10531228;28;20380;-73
2022/08/23 16:19:32;;;;;;;3.85;3.03;;;;;;;21.85;72.71;101710.31;10571581;28;20051;-73
2022/08/23 16:24:34;;;;;;;2.67;1.90;;;;;;;21.81;72.74;101706.56;10571894;28;20036;-73
2022/08/23 16:29:37;;;;;;;11.68;4.32;;;;;;;21.79;73.05;101720.03;10537820;28;20055;-74
2022/08/23 16:34:40;;;;;;;4.10;2.95;;;;;;;21.73;73.13;101713.81;10561662;28;20043;-73
2022/08/23 16:39:43;;;;;;;4.13;2.08;;;;;;;21.70;73.45;101716.44;10567518;28;20051;-73
2022/08/23 16:44:45;;;;;;;2.97;2.38;;;;;;;21.65;73.75;101728.59;10570627;28;20039;-73
2022/08/23 16:49:48;;;;;;;2.38;1.88;;;;;;;21.54;74.37;101730.09;10557857;28;20052;-73
2022/08/23 16:54:50;;;;;;;5.28;3.03;;;;;;;21.46;74.24;101728.13;10551115;28;20375;-73
2022/08/23 16:59:52;;;;;;;4.18;2.65;;;;;;;21.35;74.20;101725.66;10567109;28;20043;-73
2022/08/23 17:04:55;;;;;;;6.22;3.58;;;;;;;21.26;75.24;101727.63;10580915;28;20029;-73
2022/08/23 17:09:57;;;;;;;2.92;2.05;;;;;;;21.20;76.37;101733.66;10570624;28;20051;-74
2022/08/23 17:15:01;;;;;;;5.82;3.75;;;;;;;21.17;76.49;101721.16;10569783;28;20044;-73
2022/08/23 17:20:05;;;;;;;6.20;4.40;;;;;;;21.12;75.94;101738.06;10571804;28;20051;-73
2022/08/23 17:25:11;;;;;;;6.57;3.35;;;;;;;21.05;76.25;101740.53;10570890;28;20047;-73
2022/08/23 17:30:15;;;;;;;8.20;4.22;;;;;;;21.00;76.61;101732.28;10567266;28;20044;-73
2022/08/23 17:35:20;;;;;;;7.70;4.13;;;;;;;20.96;77.63;101731.31;10566017;28;20036;-73
2022/08/23 17:40:33;;;;;;;5.75;3.83;;;;;;;20.84;77.94;101725.53;10567626;28;20063;-72
2022/08/23 17:45:42;;;;;;;6.20;4.35;;;;;;;20.74;77.83;101743.38;10561421;28;20055;-73
2022/08/23 17:50:45;;;;;;;7.20;4.30;;;;;;;20.60;78.12;101735.13;10562549;28;20043;-74
2022/08/23 17:55:47;;;;;;;8.05;3.55;;;;;;;20.51;79.00;101742.66;10566655;28;20674;-72
2022/08/23 18:00:52;;;;;;;4.75;3.38;;;;;;;20.46;79.01;101746.38;10565125;28;20493;-73
2022/08/23 18:05:54;;;;;;;6.95;3.38;;;;;;;20.40;79.17;101741.25;10565725;28;20056;-72
2022/08/23 18:11:00;;;;;;;7.65;3.25;;;;;;;20.35;78.96;101739.44;10566673;28;20404;-72
2022/08/23 18:16:03;;;;;;;7.70;4.20;;;;;;;20.29;79.83;101734.28;10565574;28;20043;-73
2022/08/23 18:21:07;;;;;;;7.20;4.00;;;;;;;20.26;80.06;101734.94;10566231;28;20105;-72
2022/08/23 18:31:32;;;;;;;7.63;3.72;;;;;;;20.24;80.45;101726.09;10573937;28;20501;-73
2022/08/23 18:36:35;;;;;;;5.97;3.63;;;;;;;20.22;81.04;101734.78;10573227;28;20043;-73
2022/08/23 18:41:37;;;;;;;5.07;3.13;;;;;;;20.23;80.94;101741.16;10574588;28;20048;-72
2022/08/23 18:46:41;;;;;;;4.65;3.13;;;;;;;20.23;81.80;101741.16;10573322;28;20047;-74
2022/08/23 18:51:43;;;;;;;6.07;4.85;;;;;;;20.21;81.97;101726.72;10570546;28;20055;-74
2022/08/23 18:56:45;;;;;;;5.45;2.85;;;;;;;20.19;82.76;101718.69;10572080;28;20407;-73
2022/08/23 19:01:48;;;;;;;7.22;4.45;;;;;;;20.17;82.32;101730.16;10555019;28;20051;-72
2022/08/23 19:06:50;;;;;;;7.68;4.03;;;;;;;20.11;82.85;101717.47;10572107;28;20047;-73
2022/08/23 19:11:52;;;;;;;3.72;3.15;;;;;;;20.08;82.93;101732.06;10572293;28;20040;-72
2022/08/23 19:16:55;;;;;;;6.47;4.20;;;;;;;20.08;83.30;101740.41;10570819;28;20043;-74
2022/08/23 19:21:57;;;;;;;8.73;4.20;;;;;;;20.04;83.74;101722.69;10569925;28;20028;-74
2022/08/23 19:26:59;;;;;;;5.93;3.83;;;;;;;20.03;83.62;101731.38;10572865;28;20040;-72
2022/08/23 19:32:02;;;;;;;6.78;3.60;;;;;;;20.01;83.91;101720.56;10571966;28;20067;-74
2022/08/23 19:37:07;;;;;;;7.43;3.83;;;;;;;20.03;84.46;101729.41;10571014;28;20064;-76
2022/08/23 19:42:09;;;;;;;1.77;1.58;;;;;;;20.03;83.90;101723.84;10580694;28;20521;-73
2022/08/23 19:47:12;;;;;;;5.90;4.15;;;;;;;20.01;84.57;101728.91;10568418;28;20051;-73
2022/08/23 19:52:14;;;;;;;5.82;2.55;;;;;;;19.99;84.76;101730.38;10571738;28;20044;-73
2022/08/23 19:57:17;;;;;;;6.32;2.70;;;;;;;19.95;84.38;101727.38;10583448;28;20036;-74
2022/08/23 20:02:19;;;;;;;5.60;3.60;;;;;;;19.93;84.80;101726.88;10571149;28;20032;-73
2022/08/23 20:07:21;;;;;;;6.00;2.67;;;;;;;19.91;85.18;101736.69;10573031;28;20051;-74
2022/08/23 20:12:26;;;;;;;5.38;4.10;;;;;;;19.90;84.75;101726.69;10567619;28;20048;-73
2022/08/23 20:17:28;;;;;;;8.30;3.58;;;;;;;19.90;85.49;101733.09;10567356;28;20058;-74
2022/08/23 20:27:52;;;;;;;7.07;3.50;;;;;;;19.94;85.50;101725.75;10564393;28;20169;-75
2022/08/23 20:32:54;;;;;;;6.63;3.92;;;;;;;19.91;85.64;101737.53;10561322;28;20055;-74
2022/08/23 20:37:57;;;;;;;12.40;3.58;;;;;;;19.84;85.43;101732.41;10565934;28;20493;-74
2022/08/23 20:43:01;;;;;;;4.78;3.38;;;;;;;19.79;85.51;101734.50;10569805;28;20047;-77
2022/08/23 20:48:04;;;;;;;4.82;2.65;;;;;;;19.78;86.26;101724.47;10570282;28;20514;-75
2022/08/23 20:53:10;;;;;;;12.57;4.72;;;;;;;19.74;86.36;101720.69;10567098;28;20158;-73
2022/08/23 20:58:12;;;;;;;8.07;3.92;;;;;;;19.70;86.32;101726.06;10568387;28;20059;-74
2022/08/23 21:03:15;;;;;;;7.40;4.28;;;;;;;19.69;86.86;101720.81;10569126;28;20413;-74
2022/08/23 21:08:17;;;;;;;4.20;3.40;;;;;;;19.64;86.43;101727.34;10571667;28;20048;-74
2022/08/23 21:13:19;;;;;;;7.70;3.67;;;;;;;19.66;86.98;101718.69;10569747;28;20502;-74
2022/08/23 21:18:22;;;;;;;8.07;3.63;;;;;;;19.65;87.14;101717.84;10570952;28;20048;-73
2022/08/23 21:23:24;;;;;;;9.63;4.45;;;;;;;19.67;87.55;101718.34;10569959;28;20548;-74
2022/08/23 21:28:27;;;;;;;6.07;4.10;;;;;;;19.67;86.79;101720.31;10567821;28;20044;-74
2022/08/23 21:33:29;;;;;;;6.05;3.88;;;;;;;19.66;87.56;101718.69;10568562;28;20548;-74
2022/08/23 21:38:31;;;;;;;5.60;3.92;;;;;;;19.64;87.43;101712.59;10602155;28;20417;-73
2022/08/23 21:43:36;;;;;;;5.10;4.30;;;;;;;19.66;87.28;101711.16;10611914;28;20399;-73
2022/08/23 21:48:38;;;;;;;10.70;4.32;;;;;;;19.64;87.51;101712.59;10557288;28;20040;-74
2022/08/23 21:53:40;;;;;;;6.97;3.55;;;;;;;19.61;87.66;101708.47;10597659;28;20059;-73
2022/08/23 21:58:43;;;;;;;5.80;3.55;;;;;;;19.62;87.96;101703.75;10565996;28;20047;-73
2022/08/23 22:03:45;;;;;;;7.10;3.78;;;;;;;19.59;87.76;101699.59;10593095;28;20047;-73
2022/08/23 22:08:47;;;;;;;7.57;4.45;;;;;;;19.61;87.94;101700.13;10609375;28;20036;-73
2022/08/23 22:13:52;;;;;;;4.20;3.08;;;;;;;19.60;87.90;101703.22;10582631;28;20039;-74
2022/08/23 22:18:54;;;;;;;4.82;3.90;;;;;;;19.60;87.58;101697.66;10575721;28;20044;-73
2022/08/23 22:23:56;;;;;;;6.07;3.38;;;;;;;19.61;88.33;101704.84;10569066;28;20036;-72
2022/08/23 22:28:59;;;;;;;6.28;3.92;;;;;;;19.55;87.99;101701.38;10574736;28;20042;-73
2022/08/23 22:34:02;;;;;;;5.35;4.13;;;;;;;19.51;88.43;101715.09;10576458;28;20402;-73
2022/08/23 22:39:05;;;;;;;7.22;4.07;;;;;;;19.47;88.49;101716.03;10566428;28;20051;-74
2022/08/23 22:44:07;;;;;;;7.18;4.13;;;;;;;19.43;88.50;101723.34;10563390;28;20043;-73
2022/08/23 22:49:09;;;;;;;5.80;3.03;;;;;;;19.37;88.99;101714.31;10569750;28;20044;-74
2022/08/23 22:54:11;;;;;;;4.95;3.85;;;;;;;19.39;89.15;101722.34;10598412;28;20047;-75
2022/08/23 22:59:15;;;;;;;5.55;3.40;;;;;;;19.35;89.13;101719.38;10598340;28;20503;-75
2022/08/23 23:04:19;;;;;;;6.47;4.38;;;;;;;19.35;89.09;101713.00;10567451;28;20501;-73
2022/08/23 23:09:22;;;;;;;5.38;3.92;;;;;;;19.29;89.20;101715.06;10608774;28;20047;-74
2022/08/23 23:14:24;;;;;;;5.00;4.07;;;;;;;19.27;88.99;101712.59;10601732;28;20051;-73
2022/08/23 23:24:47;;;;;;;6.75;3.58;;;;;;;19.24;89.37;101704.03;10538858;28;20036;-74
2022/08/23 23:29:49;;;;;;;7.20;3.92;;;;;;;19.23;89.67;101713.53;10552250;28;20040;-74
2022/08/23 23:34:53;;;;;;;4.47;3.47;;;;;;;19.25;89.97;101703.72;10568728;28;20036;-74
2022/08/23 23:39:55;;;;;;;7.15;4.03;;;;;;;19.23;89.80;101710.75;10567706;28;20048;-74
2022/08/23 23:44:57;;;;;;;5.15;3.70;;;;;;;19.17;89.50;101710.03;10575650;28;20040;-74
2022/08/23 23:49:59;;;;;;;8.18;3.78;;;;;;;19.17;90.06;101709.22;10574315;28;20047;-74
2022/08/23 23:55:02;;;;;;;5.75;3.50;;;;;;;19.17;90.00;101717.56;10554109;28;20047;-74
